Time;durP1;ratioP1;P1;durP2;ratioP2;P2;SDS_P1;SDS_P2;PMS_P1;PMS_P2;Temp;Humidity;BMP_temperature;BMP_pressure;BME280_temperature;BME280_humidity;BME280_pressure;Samples;Min_cycle;Max_cycle;Signal;HPM_P1;HPM_P2
2023/08/12 00:02:13;;;;;;;0.98;0.90;;;;;;;;;;5014952;28;20133;-64
2023/08/12 00:04:39;;;;;;;1.15;0.82;;;;;;;;;;5015534;28;20120;-64
2023/08/12 00:07:05;;;;;;;0.70;0.70;;;;;;;;;;5011937;28;20452;-64
2023/08/12 00:09:31;;;;;;;0.95;0.90;;;;;;;;;;5012615;28;20038;-64
2023/08/12 00:11:57;;;;;;;0.60;0.60;;;;;;;;;;5013731;28;20046;-64
2023/08/12 00:14:23;;;;;;;0.70;0.70;;;;;;;;;;5016350;28;20037;-64
2023/08/12 00:16:49;;;;;;;1.05;0.90;;;;;;;;;;5019813;28;20133;-64
2023/08/12 00:19:15;;;;;;;0.80;0.80;;;;;;;;;;5016628;28;20066;-64
2023/08/12 00:21:41;;;;;;;0.90;0.90;;;;;;;;;;5016754;28;20034;-64
2023/08/12 00:24:07;;;;;;;0.68;0.68;;;;;;;;;;5017784;28;20121;-63
2023/08/12 00:26:33;;;;;;;1.00;0.80;;;;;;;;;;5019691;28;20046;-63
2023/08/12 00:28:59;;;;;;;0.70;0.68;;;;;;;;;;5018943;28;21059;-64
2023/08/12 00:31:25;;;;;;;1.20;0.75;;;;;;;;;;5016972;28;20104;-64
2023/08/12 00:33:51;;;;;;;1.02;0.70;;;;;;;;;;5020903;28;20068;-64
2023/08/12 00:36:17;;;;;;;0.65;0.65;;;;;;;;;;5018706;28;20037;-64
2023/08/12 00:38:43;;;;;;;0.68;0.60;;;;;;;;;;5019242;28;20117;-64
2023/08/12 00:41:09;;;;;;;1.85;0.98;;;;;;;;;;5019285;28;20137;-64
2023/08/12 00:43:35;;;;;;;0.60;0.60;;;;;;;;;;5016546;28;20435;-64
2023/08/12 00:46:02;;;;;;;0.60;0.60;;;;;;;;;;5016195;28;20053;-64
2023/08/12 00:48:28;;;;;;;0.63;0.40;;;;;;;;;;5016774;28;20456;-64
2023/08/12 00:50:54;;;;;;;0.65;0.40;;;;;;;;;;5018650;28;20041;-64
2023/08/12 00:53:21;;;;;;;0.50;0.50;;;;;;;;;;5018953;28;20116;-64
2023/08/12 00:55:47;;;;;;;0.60;0.50;;;;;;;;;;5016435;28;20549;-64
2023/08/12 00:58:13;;;;;;;0.50;0.50;;;;;;;;;;5014946;28;20040;-64
2023/08/12 01:00:39;;;;;;;0.73;0.68;;;;;;;;;;5016318;28;20108;-64
2023/08/12 01:03:06;;;;;;;0.50;0.50;;;;;;;;;;5018702;28;20048;-64
2023/08/12 01:05:33;;;;;;;0.47;0.47;;;;;;;;;;5018335;28;20590;-64
2023/08/12 01:08:00;;;;;;;0.40;0.40;;;;;;;;;;5016226;28;20132;-64
2023/08/12 01:10:31;;;;;;;0.30;0.30;;;;;;;;;;5014879;28;20056;-64
2023/08/12 01:13:04;;;;;;;0.38;0.38;;;;;;;;;;5016835;28;20045;-64
2023/08/12 01:15:31;;;;;;;0.70;0.40;;;;;;;;;;5018744;28;20099;-64
2023/08/12 01:17:57;;;;;;;0.30;0.30;;;;;;;;;;5017664;28;20044;-64
2023/08/12 01:20:26;;;;;;;0.35;0.35;;;;;;;;;;5015032;28;20046;-64
2023/08/12 01:23:15;;;;;;;0.57;0.40;;;;;;;;;;5015174;28;20080;-64
2023/08/12 01:25:41;;;;;;;0.20;0.20;;;;;;;;;;5004127;28;20046;-64
2023/08/12 01:28:07;;;;;;;0.52;0.25;;;;;;;;;;5015908;28;20153;-64
2023/08/12 01:30:36;;;;;;;0.30;0.30;;;;;;;;;;5021770;28;20058;-64
2023/08/12 01:33:08;;;;;;;0.32;0.32;;;;;;;;;;5021820;28;20049;-64
2023/08/12 01:35:34;;;;;;;;;;;;;;;;;;5015897;28;20052;-64
2023/08/12 01:38:03;;;;;;;0.43;0.43;;;;;;;;;;5015319;28;19921;-64
2023/08/12 01:40:30;;;;;;;0.40;0.40;;;;;;;;;;5015912;28;20045;-64
2023/08/12 01:42:56;;;;;;;1.55;0.70;;;;;;;;;;5018100;28;20519;-64
2023/08/12 01:45:23;;;;;;;0.40;0.40;;;;;;;;;;5017186;28;20041;-64
2023/08/12 01:47:50;;;;;;;0.30;0.30;;;;;;;;;;5014807;28;20050;-64
2023/08/12 01:50:16;;;;;;;0.30;0.30;;;;;;;;;;5014857;28;20046;-64
2023/08/12 01:52:42;;;;;;;0.60;0.50;;;;;;;;;;5016636;28;20034;-64
2023/08/12 01:55:09;;;;;;;0.68;0.50;;;;;;;;;;5017809;28;20053;-64
2023/08/12 01:57:35;;;;;;;0.35;0.35;;;;;;;;;;5018130;28;20129;-64
2023/08/12 02:00:02;;;;;;;0.52;0.52;;;;;;;;;;5013621;28;20046;-64
2023/08/12 02:02:28;;;;;;;0.40;0.40;;;;;;;;;;5014474;28;20038;-64
2023/08/12 02:04:54;;;;;;;0.50;0.40;;;;;;;;;;5023128;28;20042;-64
2023/08/12 02:07:20;;;;;;;0.60;0.60;;;;;;;;;;5013873;28;20484;-63
2023/08/12 02:09:46;;;;;;;0.45;0.45;;;;;;;;;;5014651;28;20048;-63
2023/08/12 02:12:12;;;;;;;0.30;0.30;;;;;;;;;;5014253;28;20037;-63
2023/08/12 02:14:38;;;;;;;0.60;0.35;;;;;;;;;;5014238;28;20045;-64
2023/08/12 02:17:07;;;;;;;0.55;0.40;;;;;;;;;;5015376;28;20104;-64
2023/08/12 02:19:34;;;;;;;0.30;0.30;;;;;;;;;;5017270;28;20045;-64
2023/08/12 02:22:00;;;;;;;0.80;0.50;;;;;;;;;;5016341;28;20056;-64
2023/08/12 02:24:26;;;;;;;1.25;0.40;;;;;;;;;;5014107;28;20447;-64
2023/08/12 02:26:52;;;;;;;0.65;0.50;;;;;;;;;;5014253;28;20561;-64
2023/08/12 02:29:18;;;;;;;0.63;0.60;;;;;;;;;;5015718;28;20038;-64
2023/08/12 02:31:44;;;;;;;0.47;0.43;;;;;;;;;;5017859;28;20037;-64
2023/08/12 02:34:10;;;;;;;0.38;0.30;;;;;;;;;;5016747;28;20041;-64
2023/08/12 02:36:36;;;;;;;0.82;0.60;;;;;;;;;;5013275;28;20089;-64
2023/08/12 02:39:02;;;;;;;0.73;0.40;;;;;;;;;;5012320;28;20038;-64
2023/08/12 02:41:28;;;;;;;0.57;0.30;;;;;;;;;;5015288;28;20555;-64
2023/08/12 02:43:54;;;;;;;0.40;0.40;;;;;;;;;;5016101;28;20492;-64
2023/08/12 02:46:21;;;;;;;0.32;0.32;;;;;;;;;;5016794;28;20045;-64
2023/08/12 02:48:47;;;;;;;0.77;0.77;;;;;;;;;;5013434;28;20130;-64
2023/08/12 02:51:13;;;;;;;0.65;0.60;;;;;;;;;;5013255;28;20092;-64
2023/08/12 02:53:39;;;;;;;1.00;0.70;;;;;;;;;;5015406;28;20033;-64
2023/08/12 02:56:05;;;;;;;0.73;0.52;;;;;;;;;;5016202;28;20054;-64
2023/08/12 02:58:31;;;;;;;0.70;0.70;;;;;;;;;;5016580;28;20041;-64
2023/08/12 03:00:57;;;;;;;0.82;0.47;;;;;;;;;;5013362;28;20080;-64
2023/08/12 03:03:24;;;;;;;0.90;0.60;;;;;;;;;;5012679;28;20046;-64
2023/08/12 03:05:50;;;;;;;0.47;0.47;;;;;;;;;;5014522;28;20078;-64
2023/08/12 03:08:16;;;;;;;0.30;0.30;;;;;;;;;;5016337;28;20041;-64
2023/08/12 03:10:42;;;;;;;0.50;0.50;;;;;;;;;;5014496;28;20568;-64
2023/08/12 03:13:08;;;;;;;0.50;0.50;;;;;;;;;;5021474;28;20041;-64
2023/08/12 03:15:35;;;;;;;0.52;0.52;;;;;;;;;;5013677;28;20121;-64
2023/08/12 03:18:01;;;;;;;0.73;0.73;;;;;;;;;;5013575;28;20084;-64
2023/08/12 03:20:27;;;;;;;0.57;0.57;;;;;;;;;;5016129;28;20034;-64
2023/08/12 03:22:53;;;;;;;1.00;0.70;;;;;;;;;;5016418;28;20049;-63
2023/08/12 03:25:19;;;;;;;0.70;0.70;;;;;;;;;;5012950;28;20059;-64
2023/08/12 03:27:45;;;;;;;0.55;0.55;;;;;;;;;;5018836;28;20111;-64
2023/08/12 03:30:11;;;;;;;0.35;0.35;;;;;;;;;;5014899;28;20048;-64
2023/08/12 03:32:37;;;;;;;0.50;0.40;;;;;;;;;;5013034;28;20030;-64
2023/08/12 03:35:04;;;;;;;0.50;0.50;;;;;;;;;;5011369;28;20533;-64
2023/08/12 03:37:30;;;;;;;0.65;0.65;;;;;;;;;;5015562;28;20547;-64
2023/08/12 03:39:56;;;;;;;0.60;0.60;;;;;;;;;;5015655;28;20046;-64
2023/08/12 03:42:22;;;;;;;0.45;0.45;;;;;;;;;;5014923;28;20392;-64
2023/08/12 03:44:48;;;;;;;0.75;0.60;;;;;;;;;;5012833;28;20049;-64
2023/08/12 03:47:14;;;;;;;0.57;0.57;;;;;;;;;;5011846;28;20503;-64
2023/08/12 03:49:40;;;;;;;0.60;0.60;;;;;;;;;;5015208;28;20041;-64
2023/08/12 03:52:07;;;;;;;0.50;0.50;;;;;;;;;;5015353;28;20051;-64
2023/08/12 03:54:33;;;;;;;0.80;0.50;;;;;;;;;;5015005;28;20400;-63
2023/08/12 03:56:59;;;;;;;0.75;0.63;;;;;;;;;;5012598;28;20556;-64
2023/08/12 03:59:25;;;;;;;0.57;0.57;;;;;;;;;;5012168;28;20129;-64
2023/08/12 04:01:51;;;;;;;0.57;0.57;;;;;;;;;;5014989;28;20229;-64
2023/08/12 04:04:17;;;;;;;0.60;0.60;;;;;;;;;;5015470;28;20124;-64
2023/08/12 04:06:43;;;;;;;0.30;0.30;;;;;;;;;;5014505;28;20553;-64
2023/08/12 04:09:10;;;;;;;0.63;0.63;;;;;;;;;;5012788;28;20118;-64
2023/08/12 04:11:36;;;;;;;0.98;0.60;;;;;;;;;;5013111;28;20049;-63
2023/08/12 04:14:02;;;;;;;0.85;0.60;;;;;;;;;;5013558;28;20049;-63
2023/08/12 04:16:28;;;;;;;0.40;0.40;;;;;;;;;;5015471;28;20135;-63
2023/08/12 04:18:54;;;;;;;0.52;0.52;;;;;;;;;;5015847;28;20130;-63
2023/08/12 04:21:20;;;;;;;0.80;0.80;;;;;;;;;;5011809;28;20049;-63
2023/08/12 04:23:46;;;;;;;1.45;1.10;;;;;;;;;;5012309;28;20042;-64
2023/08/12 04:26:12;;;;;;;1.10;0.80;;;;;;;;;;5013669;28;20042;-64
2023/08/12 04:28:38;;;;;;;0.70;0.70;;;;;;;;;;5015775;28;20033;-64
2023/08/12 04:31:07;;;;;;;0.70;0.70;;;;;;;;;;5015242;28;20053;-64
2023/08/12 04:33:34;;;;;;;0.70;0.70;;;;;;;;;;5012320;28;20045;-64
2023/08/12 04:36:00;;;;;;;0.75;0.70;;;;;;;;;;5012020;28;20819;-64
2023/08/12 04:38:26;;;;;;;0.90;0.90;;;;;;;;;;5014518;28;20063;-64
2023/08/12 04:40:54;;;;;;;0.88;0.88;;;;;;;;;;5015401;28;20128;-64
2023/08/12 04:43:20;;;;;;;1.27;0.80;;;;;;;;;;5013993;28;20485;-64
2023/08/12 04:45:49;;;;;;;1.10;1.00;;;;;;;;;;5011999;28;20050;-64
2023/08/12 04:48:15;;;;;;;0.70;0.70;;;;;;;;;;5011314;28;20220;-64
2023/08/12 04:50:45;;;;;;;0.50;0.50;;;;;;;;;;5014351;28;20120;-64
2023/08/12 04:53:11;;;;;;;0.75;0.75;;;;;;;;;;5014733;28;20030;-64
2023/08/12 04:55:38;;;;;;;1.20;1.00;;;;;;;;;;5014187;28;20057;-64
2023/08/12 04:58:04;;;;;;;0.93;0.88;;;;;;;;;;5012199;28;20508;-64
2023/08/12 05:00:31;;;;;;;0.60;0.60;;;;;;;;;;5012274;28;20042;-63
2023/08/12 05:02:57;;;;;;;0.98;0.90;;;;;;;;;;5017586;28;20067;-63
2023/08/12 05:05:23;;;;;;;1.02;0.80;;;;;;;;;;5018306;28;20037;-64
2023/08/12 05:07:49;;;;;;;0.60;0.60;;;;;;;;;;5017499;28;20048;-64
2023/08/12 05:10:18;;;;;;;0.75;0.75;;;;;;;;;;5014848;28;20038;-64
2023/08/12 05:12:46;;;;;;;1.10;1.00;;;;;;;;;;5015701;28;20072;-64
2023/08/12 05:15:12;;;;;;;1.05;1.05;;;;;;;;;;5018634;28;20068;-64
2023/08/12 05:17:38;;;;;;;0.90;0.90;;;;;;;;;;5019009;28;20399;-64
2023/08/12 05:20:04;;;;;;;0.70;0.70;;;;;;;;;;5016554;28;20045;-64
2023/08/12 05:22:30;;;;;;;1.58;0.90;;;;;;;;;;5015336;28;20522;-64
2023/08/12 05:24:56;;;;;;;1.27;1.10;;;;;;;;;;5014958;28;20129;-64
2023/08/12 05:27:22;;;;;;;0.70;0.70;;;;;;;;;;5017919;28;20113;-64
2023/08/12 05:29:48;;;;;;;0.75;0.75;;;;;;;;;;5018210;28;20045;-64
2023/08/12 05:32:14;;;;;;;0.85;0.75;;;;;;;;;;5016034;28;20104;-64
2023/08/12 05:34:40;;;;;;;1.00;0.98;;;;;;;;;;5015485;28;20459;-64
2023/08/12 05:37:06;;;;;;;1.80;1.10;;;;;;;;;;5015214;28;20116;-64
2023/08/12 05:39:32;;;;;;;0.50;0.50;;;;;;;;;;5023091;28;20161;-64
2023/08/12 05:41:58;;;;;;;1.50;1.00;;;;;;;;;;5015081;28;20063;-64
2023/08/12 05:44:24;;;;;;;0.88;0.88;;;;;;;;;;5016440;28;20535;-64
2023/08/12 05:46:50;;;;;;;0.95;0.95;;;;;;;;;;5017901;28;20041;-64
2023/08/12 05:49:16;;;;;;;1.30;1.05;;;;;;;;;;5017849;28;20076;-64
2023/08/12 05:51:42;;;;;;;0.98;0.98;;;;;;;;;;5014533;28;20515;-64
2023/08/12 05:54:08;;;;;;;1.30;1.20;;;;;;;;;;5013069;28;20052;-64
2023/08/12 05:56:34;;;;;;;1.20;0.98;;;;;;;;;;5015355;28;20412;-64
2023/08/12 05:59:01;;;;;;;1.10;1.10;;;;;;;;;;5017059;28;20037;-64
2023/08/12 06:01:26;;;;;;;1.23;1.13;;;;;;;;;;5017520;28;20045;-64
2023/08/12 06:03:53;;;;;;;3.03;1.83;;;;;;;;;;5015389;28;20119;-64
2023/08/12 06:06:19;;;;;;;1.52;1.17;;;;;;;;;;5013414;28;20446;-64
2023/08/12 06:08:45;;;;;;;1.20;1.10;;;;;;;;;;5013842;28;20049;-64
2023/08/12 06:11:11;;;;;;;3.10;1.42;;;;;;;;;;5017960;28;20561;-64
2023/08/12 06:13:37;;;;;;;1.30;1.20;;;;;;;;;;5017100;28;20047;-64
2023/08/12 06:16:04;;;;;;;1.17;1.10;;;;;;;;;;5014833;28;20042;-64
2023/08/12 06:18:30;;;;;;;1.50;1.40;;;;;;;;;;5013999;28;20113;-64
2023/08/12 06:20:56;;;;;;;1.02;1.02;;;;;;;;;;5013722;28;20381;-64
2023/08/12 06:23:22;;;;;;;1.10;1.00;;;;;;;;;;5017074;28;20051;-64
2023/08/12 06:25:48;;;;;;;0.75;0.75;;;;;;;;;;5017644;28;20067;-64
2023/08/12 06:28:14;;;;;;;0.82;0.82;;;;;;;;;;5014844;28;20450;-64
2023/08/12 06:30:40;;;;;;;1.52;0.90;;;;;;;;;;5015030;28;20042;-64
2023/08/12 06:33:06;;;;;;;1.92;1.80;;;;;;;;;;5013547;28;20105;-64
2023/08/12 06:35:32;;;;;;;1.63;1.45;;;;;;;;;;5016588;28;20387;-64
2023/08/12 06:37:58;;;;;;;1.73;1.30;;;;;;;;;;5016885;28;20049;-63
2023/08/12 06:40:24;;;;;;;1.45;1.30;;;;;;;;;;5014983;28;20045;-64
2023/08/12 06:42:50;;;;;;;1.67;1.58;;;;;;;;;;5013058;28;20041;-64
2023/08/12 06:45:16;;;;;;;3.90;1.83;;;;;;;;;;5013323;28;20095;-64
2023/08/12 06:47:42;;;;;;;1.60;1.23;;;;;;;;;;5017206;28;20042;-64
2023/08/12 06:50:08;;;;;;;1.67;1.58;;;;;;;;;;5017023;28;20044;-64
2023/08/12 06:52:34;;;;;;;1.05;0.95;;;;;;;;;;5015732;28;20125;-64
2023/08/12 06:55:00;;;;;;;1.88;1.45;;;;;;;;;;5012929;28;20078;-64
2023/08/12 06:57:26;;;;;;;1.88;1.67;;;;;;;;;;5013817;28;20045;-64
2023/08/12 06:59:53;;;;;;;1.77;1.67;;;;;;;;;;5016693;28;20121;-64
2023/08/12 07:02:19;;;;;;;2.15;1.73;;;;;;;;;;5015475;28;20037;-64
2023/08/12 07:04:44;;;;;;;1.90;1.70;;;;;;;;;;5015464;28;20099;-64
2023/08/12 07:07:11;;;;;;;4.03;2.05;;;;;;;;;;5013617;28;20037;-64
2023/08/12 07:09:37;;;;;;;3.40;1.50;;;;;;;;;;5012767;28;20069;-64
2023/08/12 07:12:03;;;;;;;2.00;1.90;;;;;;;;;;5015984;28;20075;-64
2023/08/12 07:14:29;;;;;;;1.73;1.63;;;;;;;;;;5016675;28;20072;-64
2023/08/12 07:16:55;;;;;;;1.60;1.50;;;;;;;;;;5014886;28;20049;-64
2023/08/12 07:19:22;;;;;;;1.92;1.77;;;;;;;;;;5013507;28;20113;-64
2023/08/12 07:21:48;;;;;;;3.15;2.28;;;;;;;;;;5013112;28;20067;-64
2023/08/12 07:24:14;;;;;;;2.30;2.10;;;;;;;;;;5013826;28;20518;-64
2023/08/12 07:26:40;;;;;;;1.90;1.70;;;;;;;;;;5016859;28;20542;-63
2023/08/12 07:29:06;;;;;;;3.13;2.50;;;;;;;;;;5014769;28;20046;-63
2023/08/12 07:31:32;;;;;;;2.97;2.38;;;;;;;;;;5012459;28;20041;-63
2023/08/12 07:33:58;;;;;;;1.85;1.75;;;;;;;;;;5013386;28;20037;-63
2023/08/12 07:36:24;;;;;;;2.15;2.05;;;;;;;;;;5015340;28;20666;-64
2023/08/12 07:38:50;;;;;;;3.13;2.75;;;;;;;;;;5015636;28;20049;-64
2023/08/12 07:41:16;;;;;;;2.40;2.20;;;;;;;;;;5014797;28;20060;-63
2023/08/12 07:43:42;;;;;;;3.83;2.55;;;;;;;;;;5013507;28;20041;-63
2023/08/12 07:46:08;;;;;;;2.65;2.45;;;;;;;;;;5012813;28;20077;-63
2023/08/12 07:48:34;;;;;;;4.28;3.25;;;;;;;;;;5014826;28;20046;-64
2023/08/12 07:51:00;;;;;;;2.70;2.50;;;;;;;;;;5015999;28;20045;-64
2023/08/12 07:53:26;;;;;;;3.67;2.38;;;;;;;;;;5014950;28;20044;-64
2023/08/12 07:55:52;;;;;;;2.40;1.60;;;;;;;;;;5012432;28;20499;-63
2023/08/12 07:58:19;;;;;;;1.80;1.70;;;;;;;;;;5011804;28;20104;-63
2023/08/12 08:00:45;;;;;;;3.15;2.33;;;;;;;;;;5014415;28;20461;-63
2023/08/12 08:03:11;;;;;;;3.17;2.88;;;;;;;;;;5016002;28;20072;-63
2023/08/12 08:05:40;;;;;;;2.65;2.45;;;;;;;;;;5015155;28;20407;-63
2023/08/12 08:08:06;;;;;;;1.83;1.73;;;;;;;;;;5012537;28;20068;-63
2023/08/12 08:10:32;;;;;;;1.98;1.88;;;;;;;;;;5012162;28;20503;-64
2023/08/12 08:12:58;;;;;;;3.65;3.08;;;;;;;;;;5013951;28;20078;-64
2023/08/12 08:15:24;;;;;;;3.13;2.83;;;;;;;;;;5015343;28;20148;-64
2023/08/12 08:17:50;;;;;;;2.17;2.05;;;;;;;;;;5015060;28;20411;-64
2023/08/12 08:20:16;;;;;;;2.28;2.08;;;;;;;;;;5011776;28;20042;-64
2023/08/12 08:22:42;;;;;;;2.42;2.22;;;;;;;;;;5012848;28;20050;-64
2023/08/12 08:25:08;;;;;;;2.17;1.98;;;;;;;;;;5014295;28;20157;-64
2023/08/12 08:27:34;;;;;;;1.73;1.60;;;;;;;;;;5014988;28;20069;-64
2023/08/12 08:30:00;;;;;;;3.10;2.78;;;;;;;;;;5015292;28;20057;-64
2023/08/12 08:32:26;;;;;;;2.90;2.65;;;;;;;;;;5012277;28;20496;-64
2023/08/12 08:34:52;;;;;;;2.35;2.15;;;;;;;;;;5012768;28;20141;-64
2023/08/12 08:37:18;;;;;;;2.88;2.67;;;;;;;;;;5017528;28;20141;-64
2023/08/12 08:39:44;;;;;;;2.08;1.98;;;;;;;;;;5019316;28;20091;-64
2023/08/12 08:42:12;;;;;;;3.33;2.35;;;;;;;;;;5018582;28;20515;-64
2023/08/12 08:44:42;;;;;;;1.80;1.65;;;;;;;;;;5019865;28;20044;-64
2023/08/12 08:47:08;;;;;;;2.65;2.15;;;;;;;;;;5019677;28;20045;-64
2023/08/12 08:49:35;;;;;;;2.20;2.10;;;;;;;;;;5016586;28;20051;-64
2023/08/12 08:52:01;;;;;;;1.60;1.50;;;;;;;;;;5015565;28;20077;-64
2023/08/12 08:54:28;;;;;;;1.83;1.30;;;;;;;;;;5015054;28;20053;-64
2023/08/12 08:56:54;;;;;;;1.50;1.40;;;;;;;;;;5018396;28;20096;-64
2023/08/12 08:59:21;;;;;;;1.65;1.55;;;;;;;;;;5018217;28;20402;-64
2023/08/12 09:01:51;;;;;;;1.63;1.50;;;;;;;;;;5016091;28;20103;-64
2023/08/12 09:04:17;;;;;;;1.50;1.40;;;;;;;;;;5015124;28;20058;-64
2023/08/12 09:06:44;;;;;;;1.70;1.60;;;;;;;;;;5016420;28;20529;-64
2023/08/12 09:09:13;;;;;;;1.70;1.58;;;;;;;;;;5018092;28;20041;-64
2023/08/12 09:11:40;;;;;;;1.50;1.40;;;;;;;;;;5018917;28;20041;-64
2023/08/12 09:14:06;;;;;;;1.88;1.70;;;;;;;;;;5015078;28;20462;-64
2023/08/12 09:16:32;;;;;;;1.67;1.55;;;;;;;;;;5014770;28;20149;-64
2023/08/12 09:18:59;;;;;;;1.58;1.48;;;;;;;;;;5016423;28;20072;-64
2023/08/12 09:21:25;;;;;;;1.30;1.20;;;;;;;;;;5018235;28;20041;-64
2023/08/12 09:23:51;;;;;;;0.98;0.98;;;;;;;;;;5017771;28;20438;-64
2023/08/12 09:26:18;;;;;;;1.92;1.00;;;;;;;;;;5015266;28;20043;-64
2023/08/12 09:28:45;;;;;;;0.90;0.90;;;;;;;;;;5015322;28;20033;-64
2023/08/12 09:31:23;;;;;;;1.73;1.20;;;;;;;;;;5016155;28;20045;-64
2023/08/12 09:33:49;;;;;;;1.10;0.90;;;;;;;;;;5018655;28;20046;-64
2023/08/12 09:36:16;;;;;;;1.45;1.10;;;;;;;;;;5016257;28;20471;-63
2023/08/12 09:38:42;;;;;;;1.25;1.15;;;;;;;;;;5018064;28;20037;-64
2023/08/12 09:41:09;;;;;;;1.88;0.95;;;;;;;;;;5016818;28;20050;-64
2023/08/12 09:43:35;;;;;;;1.90;1.70;;;;;;;;;;5018036;28;20044;-64
2023/08/12 09:46:01;;;;;;;1.92;1.67;;;;;;;;;;5017504;28;20045;-64
2023/08/12 09:48:27;;;;;;;1.40;1.25;;;;;;;;;;5016288;28;20038;-64
2023/08/12 09:50:53;;;;;;;2.00;1.83;;;;;;;;;;5014393;28;20077;-64
2023/08/12 09:53:20;;;;;;;1.60;1.50;;;;;;;;;;5014855;28;20058;-64
2023/08/12 09:55:48;;;;;;;0.90;0.90;;;;;;;;;;5017217;28;20053;-64
2023/08/12 09:58:17;;;;;;;1.50;1.40;;;;;;;;;;5016768;28;20083;-64
2023/08/12 10:00:43;;;;;;;1.38;1.27;;;;;;;;;;5015631;28;20053;-64
2023/08/12 10:03:14;;;;;;;1.58;1.48;;;;;;;;;;5015007;28;20033;-64
2023/08/12 10:05:40;;;;;;;1.27;1.17;;;;;;;;;;5014825;28;20491;-64
2023/08/12 10:08:07;;;;;;;1.35;0.90;;;;;;;;;;5017317;28;20673;-64
2023/08/12 10:10:35;;;;;;;2.53;1.95;;;;;;;;;;5017897;28;20037;-64
2023/08/12 10:13:02;;;;;;;2.67;2.10;;;;;;;;;;5013729;28;20522;-64
2023/08/12 10:15:28;;;;;;;2.03;1.83;;;;;;;;;;5014132;28;20041;-64
2023/08/12 10:17:54;;;;;;;1.50;1.40;;;;;;;;;;5015133;28;20459;-64
2023/08/12 10:20:22;;;;;;;1.42;1.33;;;;;;;;;;5016978;28;20041;-64
2023/08/12 10:22:49;;;;;;;1.20;1.10;;;;;;;;;;5016509;28;20120;-64
2023/08/12 10:25:15;;;;;;;2.10;1.30;;;;;;;;;;5022202;28;20100;-64
2023/08/12 10:27:42;;;;;;;1.88;1.48;;;;;;;;;;5014109;28;20050;-64
2023/08/12 10:30:09;;;;;;;1.50;1.40;;;;;;;;;;5015942;28;20038;-64
2023/08/12 10:32:35;;;;;;;3.05;2.75;;;;;;;;;;5017202;28;20043;-64
2023/08/12 10:35:02;;;;;;;2.70;2.30;;;;;;;;;;5016228;28;20041;-64
2023/08/12 10:37:32;;;;;;;2.80;2.53;;;;;;;;;;5013939;28;20041;-64
2023/08/12 10:39:58;;;;;;;3.60;2.65;;;;;;;;;;5013496;28;20530;-64
2023/08/12 10:42:43;;;;;;;1.63;1.52;;;;;;;;;;5015500;28;20050;-64
2023/08/12 10:45:10;;;;;;;1.92;1.55;;;;;;;;;;5016733;28;20042;-64
2023/08/12 10:47:40;;;;;;;1.70;1.27;;;;;;;;;;5013222;28;20044;-64
2023/08/12 10:50:07;;;;;;;3.58;3.28;;;;;;;;;;5011787;28;20060;-64
2023/08/12 10:52:34;;;;;;;2.38;2.15;;;;;;;;;;5015091;28;20753;-64
2023/08/12 10:55:19;;;;;;;1.50;1.40;;;;;;;;;;5015541;28;20703;-64
2023/08/12 10:57:46;;;;;;;3.35;3.05;;;;;;;;;;5013644;28;20053;-64
2023/08/12 11:00:14;;;;;;;2.22;2.13;;;;;;;;;;5013041;28;20038;-64
2023/08/12 11:02:40;;;;;;;2.20;1.70;;;;;;;;;;5014663;28;20053;-64
2023/08/12 11:05:10;;;;;;;2.15;2.05;;;;;;;;;;5016190;28;20038;-64
2023/08/12 11:07:39;;;;;;;1.95;1.85;;;;;;;;;;5016328;28;20047;-64
2023/08/12 11:10:10;;;;;;;1.83;1.73;;;;;;;;;;5012412;28;20049;-64
2023/08/12 11:12:37;;;;;;;1.58;1.48;;;;;;;;;;5013617;28;20540;-64
2023/08/12 11:15:04;;;;;;;1.80;1.50;;;;;;;;;;5015461;28;20934;-64
2023/08/12 11:17:37;;;;;;;2.05;1.45;;;;;;;;;;5016292;28;20041;-64
2023/08/12 11:20:07;;;;;;;1.70;1.60;;;;;;;;;;5014384;28;20048;-64
2023/08/12 11:22:34;;;;;;;1.52;1.42;;;;;;;;;;5013091;28;20155;-64
2023/08/12 11:25:01;;;;;;;1.17;1.08;;;;;;;;;;5014906;28;20050;-64
2023/08/12 11:27:27;;;;;;;0.88;0.88;;;;;;;;;;5016871;28;20039;-64
2023/08/12 11:29:53;;;;;;;1.42;1.05;;;;;;;;;;5015367;28;20037;-64
2023/08/12 11:32:20;;;;;;;1.48;1.10;;;;;;;;;;5013485;28;20049;-64
2023/08/12 11:34:46;;;;;;;2.08;1.70;;;;;;;;;;5013230;28;20539;-64
2023/08/12 11:37:12;;;;;;;1.40;1.15;;;;;;;;;;5013575;28;20071;-64
2023/08/12 11:39:39;;;;;;;1.02;0.93;;;;;;;;;;5016540;28;20039;-64
2023/08/12 11:42:05;;;;;;;1.50;1.13;;;;;;;;;;5014414;28;20053;-64
2023/08/12 11:44:31;;;;;;;1.30;1.00;;;;;;;;;;5013536;28;20049;-64
2023/08/12 11:46:57;;;;;;;1.15;1.00;;;;;;;;;;5012985;28;20046;-64
2023/08/12 11:49:23;;;;;;;1.02;0.60;;;;;;;;;;5013409;28;20080;-64
2023/08/12 11:51:49;;;;;;;0.50;0.50;;;;;;;;;;5015225;28;20118;-64
2023/08/12 11:54:16;;;;;;;0.63;0.57;;;;;;;;;;5015334;28;20136;-64
2023/08/12 11:56:42;;;;;;;0.40;0.40;;;;;;;;;;5014038;28;20057;-64
2023/08/12 11:59:08;;;;;;;0.70;0.60;;;;;;;;;;5011876;28;20399;-64
2023/08/12 12:01:34;;;;;;;0.60;0.60;;;;;;;;;;5012988;28;20412;-64
2023/08/12 12:04:01;;;;;;;0.50;0.50;;;;;;;;;;5015552;28;20041;-64
2023/08/12 12:06:34;;;;;;;0.88;0.50;;;;;;;;;;5014885;28;20045;-64
2023/08/12 12:09:09;;;;;;;0.75;0.60;;;;;;;;;;5015476;28;20045;-64
2023/08/12 12:11:39;;;;;;;0.63;0.60;;;;;;;;;;5018822;28;20045;-64
2023/08/12 12:14:05;;;;;;;1.02;0.43;;;;;;;;;;5016395;28;20046;-64
2023/08/12 12:16:41;;;;;;;1.67;0.85;;;;;;;;;;5016514;28;20357;-64
2023/08/12 12:19:14;;;;;;;0.50;0.30;;;;;;;;;;5018372;28;20041;-64
2023/08/12 12:21:41;;;;;;;0.40;0.40;;;;;;;;;;5020168;28;20041;-64
2023/08/12 12:24:07;;;;;;;0.40;0.40;;;;;;;;;;5017375;28;20041;-64
2023/08/12 12:26:34;;;;;;;0.30;0.30;;;;;;;;;;5015709;28;20578;-64
2023/08/12 12:29:00;;;;;;;0.50;0.30;;;;;;;;;;5016912;28;20045;-64
2023/08/12 12:31:26;;;;;;;0.73;0.40;;;;;;;;;;5019387;28;20037;-64
2023/08/12 12:33:52;;;;;;;0.32;0.30;;;;;;;;;;5012346;28;20072;-64
2023/08/12 12:36:18;;;;;;;0.63;0.38;;;;;;;;;;5018346;28;20042;-64
2023/08/12 12:38:44;;;;;;;0.65;0.45;;;;;;;;;;5021056;28;20091;-64
2023/08/12 12:41:10;;;;;;;1.02;0.40;;;;;;;;;;5023895;28;20068;-64
2023/08/12 12:43:36;;;;;;;0.90;0.43;;;;;;;;;;5016274;28;20054;-64
2023/08/12 12:46:02;;;;;;;0.55;0.50;;;;;;;;;;5015655;28;20408;-64
2023/08/12 12:48:28;;;;;;;0.30;0.20;;;;;;;;;;5017307;28;20041;-64
2023/08/12 12:50:54;;;;;;;0.30;0.20;;;;;;;;;;5019263;28;20064;-64
2023/08/12 12:53:20;;;;;;;1.38;0.30;;;;;;;;;;5019134;28;20053;-64
2023/08/12 12:55:46;;;;;;;0.70;0.55;;;;;;;;;;5017727;28;20656;-64
2023/08/12 12:58:12;;;;;;;0.50;0.50;;;;;;;;;;5019485;28;20045;-64
2023/08/12 13:00:38;;;;;;;0.70;0.50;;;;;;;;;;5017301;28;20691;-64
2023/08/12 13:03:04;;;;;;;0.60;0.60;;;;;;;;;;5016141;28;20038;-64
2023/08/12 13:05:30;;;;;;;0.85;0.60;;;;;;;;;;5015834;28;20423;-64
2023/08/12 13:07:56;;;;;;;1.17;0.55;;;;;;;;;;5018416;28;20046;-64
2023/08/12 13:10:22;;;;;;;1.75;0.50;;;;;;;;;;5019191;28;20048;-64
2023/08/12 13:12:48;;;;;;;1.27;0.57;;;;;;;;;;5018117;28;20052;-64
2023/08/12 13:15:14;;;;;;;2.10;1.10;;;;;;;;;;5014828;28;20126;-64
2023/08/12 13:17:40;;;;;;;1.23;0.82;;;;;;;;;;5015849;28;20038;-64
2023/08/12 13:20:07;;;;;;;1.30;0.85;;;;;;;;;;5017879;28;20506;-64
2023/08/12 13:22:33;;;;;;;1.35;0.80;;;;;;;;;;5017521;28;20654;-64
2023/08/12 13:24:59;;;;;;;2.33;1.02;;;;;;;;;;5018163;28;20041;-64
2023/08/12 13:27:25;;;;;;;3.83;1.33;;;;;;;;;;5015614;28;20112;-64
2023/08/12 13:29:51;;;;;;;2.70;1.40;;;;;;;;;;5015044;28;20104;-64
2023/08/12 13:32:17;;;;;;;1.73;1.30;;;;;;;;;;5017779;28;20124;-64
2023/08/12 13:34:46;;;;;;;1.92;1.35;;;;;;;;;;5019310;28;20046;-64
2023/08/12 13:37:12;;;;;;;2.40;1.17;;;;;;;;;;5016666;28;20037;-64
2023/08/12 13:39:38;;;;;;;1.73;1.00;;;;;;;;;;5015327;28;20065;-64
2023/08/12 13:42:04;;;;;;;7.07;1.95;;;;;;;;;;5014725;28;20050;-64
2023/08/12 13:44:30;;;;;;;1.77;1.33;;;;;;;;;;5017130;28;20514;-64
2023/08/12 13:46:56;;;;;;;7.88;2.58;;;;;;;;;;5018185;28;20052;-64
2023/08/12 13:49:22;;;;;;;4.13;1.58;;;;;;;;;;5017044;28;20041;-64
2023/08/12 13:51:48;;;;;;;3.40;1.48;;;;;;;;;;5014421;28;20626;-64
2023/08/12 13:54:14;;;;;;;2.17;1.08;;;;;;;;;;5014529;28;20054;-64
2023/08/12 13:56:40;;;;;;;4.50;1.58;;;;;;;;;;5017889;28;20065;-64
2023/08/12 13:59:06;;;;;;;3.60;1.42;;;;;;;;;;5016823;28;20041;-64
2023/08/12 14:01:32;;;;;;;2.45;1.15;;;;;;;;;;5017125;28;20047;-64
2023/08/12 14:03:58;;;;;;;1.60;1.00;;;;;;;;;;5014505;28;20034;-64
2023/08/12 14:06:24;;;;;;;2.17;1.00;;;;;;;;;;5014338;28;20107;-64
2023/08/12 14:08:50;;;;;;;3.00;1.23;;;;;;;;;;5017020;28;20062;-64
2023/08/12 14:11:16;;;;;;;3.80;1.70;;;;;;;;;;5017013;28;20049;-64
2023/08/12 14:13:42;;;;;;;1.38;0.77;;;;;;;;;;5016749;28;20041;-64
2023/08/12 14:16:08;;;;;;;2.05;1.30;;;;;;;;;;5021830;28;20608;-64
2023/08/12 14:18:34;;;;;;;2.78;1.35;;;;;;;;;;5020816;28;20057;-64
2023/08/12 14:21:00;;;;;;;3.50;1.40;;;;;;;;;;5015639;28;20077;-64
2023/08/12 14:23:26;;;;;;;2.05;0.90;;;;;;;;;;5014134;28;20100;-64
2023/08/12 14:25:52;;;;;;;1.67;0.90;;;;;;;;;;5013812;28;20046;-64
2023/08/12 14:28:18;;;;;;;1.23;0.90;;;;;;;;;;5017286;28;20047;-64
2023/08/12 14:30:44;;;;;;;1.63;0.90;;;;;;;;;;5018013;28;20400;-64
2023/08/12 14:33:11;;;;;;;2.22;1.10;;;;;;;;;;5015053;28;20495;-64
2023/08/12 14:35:37;;;;;;;1.75;1.00;;;;;;;;;;5019334;28;20107;-64
2023/08/12 14:38:03;;;;;;;2.42;1.10;;;;;;;;;;5016895;28;20045;-64
2023/08/12 14:40:29;;;;;;;6.38;1.73;;;;;;;;;;5014951;28;20049;-64